Time;durP1;ratioP1;P1;durP2;ratioP2;P2;SDS_P1;SDS_P2;PMS_P1;PMS_P2;Temp;Humidity;BMP_temperature;BMP_pressure;BME280_temperature;BME280_humidity;BME280_pressure;Samples;Min_cycle;Max_cycle;Signal;HPM_P1;HPM_P2
2022/04/10 00:00:05;;;;;;;5.72;2.22;;;2.60;99.90;;;;;;4989922;28;20030;-54
2022/04/10 00:02:31;;;;;;;11.32;2.88;;;2.60;99.90;;;;;;4988812;28;20444;-54
2022/04/10 00:04:57;;;;;;;8.65;2.70;;;2.60;99.90;;;;;;4990077;28;20105;-53
2022/04/10 00:07:22;;;;;;;8.32;2.20;;;2.60;99.90;;;;;;4990644;28;20030;-52
2022/04/10 00:09:48;;;;;;;10.00;2.53;;;2.60;99.90;;;;;;4993905;28;20027;-51
2022/04/10 00:12:13;;;;;;;12.90;2.42;;;2.70;99.90;;;;;;4993317;28;20339;-52
2022/04/10 00:14:39;;;;;;;9.05;2.42;;;2.70;99.90;;;;;;4982038;28;20112;-54
2022/04/10 00:17:05;;;;;;;7.72;2.28;;;2.70;99.90;;;;;;4993384;28;20608;-54
2022/04/10 00:19:31;;;;;;;6.93;2.45;;;2.80;99.90;;;;;;4993456;28;20038;-53
2022/04/10 00:21:56;;;;;;;7.60;2.38;;;2.70;99.90;;;;;;4993404;28;20508;-51
2022/04/10 00:24:25;;;;;;;8.45;2.30;;;2.70;99.90;;;;;;4993380;28;20023;-50
2022/04/10 00:26:52;;;;;;;15.95;3.03;;;2.70;99.90;;;;;;4992275;28;20022;-53
2022/04/10 00:29:18;;;;;;;6.10;2.00;;;2.70;99.90;;;;;;4991129;28;20029;-52
2022/04/10 00:31:43;;;;;;;11.68;2.83;;;2.60;99.90;;;;;;4991502;28;20026;-55
2022/04/10 00:34:09;;;;;;;6.85;2.45;;;2.60;99.90;;;;;;4992654;28;20031;-53
2022/04/10 00:36:35;;;;;;;10.38;2.63;;;2.50;99.90;;;;;;4983525;28;20428;-54
2022/04/10 00:39:00;;;;;;;7.45;2.10;;;2.50;99.90;;;;;;5000725;28;20130;-52
2022/04/10 00:41:26;;;;;;;5.85;2.00;;;2.50;99.90;;;;;;4992958;28;20026;-51
2022/04/10 00:44:10;;;;;;;9.43;2.80;;;2.40;99.90;;;;;;4992339;28;20062;-52
2022/04/10 00:46:36;;;;;;;13.20;3.08;;;2.40;99.90;;;;;;4992790;28;20479;-51
2022/04/10 00:49:03;;;;;;;3.67;2.03;;;2.40;99.90;;;;;;4992979;28;20113;-52
2022/04/10 00:51:46;;;;;;;9.50;2.08;;;2.40;99.90;;;;;;4991234;28;20026;-49
2022/04/10 00:54:17;;;;;;;9.65;1.83;;;2.40;99.90;;;;;;4992806;28;20023;-53
2022/04/10 00:56:44;;;;;;;5.20;2.30;;;2.40;99.90;;;;;;4992273;28;20034;-49
2022/04/10 00:59:10;;;;;;;10.70;2.30;;;2.40;99.90;;;;;;4990561;28;20030;-52
2022/04/10 01:01:38;;;;;;;6.32;2.13;;;2.30;99.90;;;;;;4990297;28;20022;-52
2022/04/10 01:04:05;;;;;;;9.02;1.92;;;2.30;99.90;;;;;;4991009;28;20038;-50
2022/04/10 01:06:33;;;;;;;11.07;1.65;;;2.30;99.90;;;;;;4992329;28;20015;-50
2022/04/10 01:08:59;;;;;;;10.30;2.28;;;2.30;99.90;;;;;;4992541;28;20030;-51
2022/04/10 01:11:25;;;;;;;8.15;1.75;;;2.30;99.90;;;;;;4991767;28;20053;-53
2022/04/10 01:13:53;;;;;;;3.90;1.85;;;2.30;99.90;;;;;;4991612;28;20406;-53
2022/04/10 01:16:20;;;;;;;13.02;3.58;;;2.30;99.90;;;;;;4990855;28;20042;-49
2022/04/10 01:18:46;;;;;;;4.13;1.98;;;2.20;99.90;;;;;;4991587;28;20033;-50
2022/04/10 01:21:21;;;;;;;5.50;1.90;;;2.30;99.90;;;;;;4992222;28;20109;-54
2022/04/10 01:23:47;;;;;;;6.07;2.28;;;2.20;99.90;;;;;;4991541;28;20050;-52
2022/04/10 01:26:12;;;;;;;5.95;1.33;;;2.20;99.90;;;;;;4991895;28;20034;-49
2022/04/10 01:28:57;;;;;;;5.88;2.40;;;2.20;99.90;;;;;;4992286;28;20018;-50
2022/04/10 01:31:23;;;;;;;6.07;2.42;;;2.20;99.90;;;;;;4992258;28;20030;-49
2022/04/10 01:33:49;;;;;;;9.23;2.00;;;2.30;99.90;;;;;;4991553;28;20022;-51
2022/04/10 01:36:15;;;;;;;7.72;1.92;;;2.20;99.90;;;;;;4992202;28;20031;-51
2022/04/10 01:38:42;;;;;;;3.03;1.52;;;2.20;99.90;;;;;;4992201;28;20037;-53
2022/04/10 01:41:14;;;;;;;11.25;1.52;;;2.20;99.90;;;;;;4991833;28;20022;-52
2022/04/10 01:43:49;;;;;;;5.53;1.63;;;2.20;99.90;;;;;;4992110;28;20026;-53
2022/04/10 01:46:15;;;;;;;3.90;1.45;;;2.20;99.90;;;;;;4991856;28;20498;-54
2022/04/10 01:48:42;;;;;;;3.38;1.67;;;2.10;99.90;;;;;;4991666;28;20072;-52
2022/04/10 01:51:08;;;;;;;2.55;1.88;;;2.00;99.90;;;;;;4989646;28;20037;-52
2022/04/10 01:53:35;;;;;;;5.50;1.42;;;2.10;99.90;;;;;;4991215;28;20504;-50
2022/04/10 01:56:05;;;;;;;7.63;1.80;;;2.00;99.90;;;;;;4991472;28;20038;-53
2022/04/10 01:58:33;;;;;;;4.15;1.35;;;2.00;99.90;;;;;;4991491;28;20052;-51
2022/04/10 02:01:02;;;;;;;8.35;1.35;;;2.00;99.90;;;;;;4991319;28;20215;-52
2022/04/10 02:03:27;;;;;;;6.68;1.65;;;1.90;99.90;;;;;;4990932;28;20034;-50
2022/04/10 02:05:53;;;;;;;9.18;1.70;;;2.00;99.90;;;;;;4991377;28;20032;-54
2022/04/10 02:08:19;;;;;;;4.72;1.33;;;2.00;99.90;;;;;;4991859;28;20396;-52
2022/04/10 02:10:44;;;;;;;6.53;2.05;;;2.00;99.90;;;;;;4991614;28;20033;-51
2022/04/10 02:13:10;;;;;;;2.25;1.33;;;2.00;99.90;;;;;;4991305;28;20118;-54
2022/04/10 02:15:36;;;;;;;7.05;1.83;;;1.90;99.90;;;;;;4991775;28;20037;-51
2022/04/10 02:18:03;;;;;;;4.60;1.55;;;1.90;99.90;;;;;;4991216;28;20124;-55
2022/04/10 02:20:28;;;;;;;5.55;1.90;;;1.90;99.90;;;;;;4991193;28;20029;-51
2022/04/10 02:22:54;;;;;;;12.77;2.63;;;1.90;99.90;;;;;;4990481;28;20023;-52
2022/04/10 02:25:20;;;;;;;6.30;2.17;;;1.90;99.90;;;;;;4990715;28;20102;-53
2022/04/10 02:27:46;;;;;;;8.15;2.20;;;1.90;99.90;;;;;;4990792;28;20088;-53
2022/04/10 02:30:12;;;;;;;6.95;2.45;;;1.90;99.90;;;;;;4989779;28;20113;-54
2022/04/10 02:32:39;;;;;;;6.32;2.60;;;2.00;99.90;;;;;;4990416;28;20401;-50
2022/04/10 02:35:05;;;;;;;8.15;2.13;;;2.00;99.90;;;;;;4990791;28;20030;-52
2022/04/10 02:37:30;;;;;;;10.00;2.08;;;2.00;99.90;;;;;;4990166;28;20034;-52
2022/04/10 02:39:56;;;;;;;7.45;2.28;;;2.00;99.90;;;;;;4990647;28;20033;-51
2022/04/10 02:42:24;;;;;;;6.72;2.13;;;2.00;99.90;;;;;;4989474;28;20052;-53
2022/04/10 02:44:50;;;;;;;6.20;1.70;;;2.00;99.90;;;;;;4990432;28;20122;-50
2022/04/10 02:47:15;;;;;;;4.07;1.90;;;2.00;99.90;;;;;;4991030;28;20034;-53
2022/04/10 02:49:41;;;;;;;4.80;1.67;;;2.00;99.90;;;;;;4990663;28;20034;-51
2022/04/10 02:52:07;;;;;;;6.40;2.03;;;1.90;99.90;;;;;;4986889;28;20165;-51
2022/04/10 02:54:33;;;;;;;4.32;1.92;;;1.90;99.90;;;;;;4990642;28;20121;-54
2022/04/10 02:56:58;;;;;;;4.43;1.30;;;1.80;99.90;;;;;;4990514;28;20632;-55
2022/04/10 02:59:24;;;;;;;6.78;1.50;;;1.80;99.90;;;;;;4990529;28;20070;-53
2022/04/10 03:01:50;;;;;;;7.57;1.98;;;1.70;99.90;;;;;;4990313;28;20420;-51
2022/04/10 03:04:18;;;;;;;3.30;1.77;;;1.80;99.90;;;;;;4989919;28;20504;-52
2022/04/10 03:06:44;;;;;;;3.97;1.30;;;1.80;99.90;;;;;;4990105;28;20023;-52
2022/04/10 03:09:09;;;;;;;7.65;1.88;;;1.70;99.90;;;;;;4990071;28;20489;-53
2022/04/10 03:11:35;;;;;;;2.42;1.67;;;1.80;99.90;;;;;;4990015;28;20042;-50
2022/04/10 03:14:00;;;;;;;2.25;1.15;;;1.70;99.90;;;;;;4990044;28;20489;-54
2022/04/10 03:16:26;;;;;;;5.43;1.42;;;1.70;99.90;;;;;;4989696;28;20109;-51
2022/04/10 03:18:52;;;;;;;4.15;1.23;;;1.70;99.90;;;;;;4989995;28;20034;-53
2022/04/10 03:21:18;;;;;;;3.67;1.50;;;1.60;99.90;;;;;;4989712;28;20026;-51
2022/04/10 03:23:44;;;;;;;6.43;1.60;;;1.60;99.90;;;;;;4990080;28;20374;-50
2022/04/10 03:26:10;;;;;;;6.32;1.85;;;1.60;99.90;;;;;;4989807;28;20029;-54
2022/04/10 03:28:35;;;;;;;3.63;1.52;;;1.50;99.90;;;;;;4990415;28;20088;-51
2022/04/10 03:31:01;;;;;;;3.35;1.58;;;1.50;99.90;;;;;;4990018;28;20105;-50
2022/04/10 03:33:26;;;;;;;3.97;1.60;;;1.40;99.90;;;;;;4989962;28;20118;-52
2022/04/10 03:35:55;;;;;;;3.53;1.58;;;1.40;99.90;;;;;;4990322;28;20517;-52
2022/04/10 03:38:21;;;;;;;5.43;1.77;;;1.30;99.90;;;;;;4989803;28;20034;-51
2022/04/10 03:40:47;;;;;;;5.72;2.05;;;1.30;99.90;;;;;;4989866;28;20121;-51
2022/04/10 03:43:13;;;;;;;4.88;1.83;;;1.30;99.90;;;;;;4989886;28;20146;-51
2022/04/10 03:45:39;;;;;;;3.80;1.77;;;1.30;99.90;;;;;;4989504;28;20039;-51
2022/04/10 03:48:06;;;;;;;3.67;1.80;;;1.30;99.90;;;;;;4989552;28;20113;-49
2022/04/10 03:50:33;;;;;;;5.88;2.00;;;1.30;99.90;;;;;;4990005;28;20118;-50
2022/04/10 03:53:00;;;;;;;6.82;1.60;;;1.30;99.90;;;;;;4988993;28;20038;-50
2022/04/10 03:55:25;;;;;;;4.40;2.28;;;1.30;99.90;;;;;;4989915;28;20552;-52
2022/04/10 03:57:51;;;;;;;4.63;2.05;;;1.20;99.90;;;;;;4989268;28;20065;-53
2022/04/10 04:00:17;;;;;;;3.00;2.05;;;1.20;99.90;;;;;;4989930;28;20092;-52
2022/04/10 04:02:43;;;;;;;3.75;2.22;;;1.20;99.90;;;;;;4989102;28;20460;-51
2022/04/10 04:05:09;;;;;;;6.07;2.60;;;1.20;99.90;;;;;;4988588;28;20491;-50
2022/04/10 04:07:35;;;;;;;8.05;2.22;;;1.20;99.90;;;;;;4989385;28;20030;-49
2022/04/10 04:10:02;;;;;;;4.05;2.00;;;1.20;99.90;;;;;;4989661;28;20105;-53
2022/04/10 04:12:27;;;;;;;9.35;2.88;;;1.20;99.90;;;;;;4989479;28;20576;-50
2022/04/10 04:14:53;;;;;;;7.25;2.90;;;1.30;99.90;;;;;;4989734;28;20114;-50
2022/04/10 04:17:18;;;;;;;5.78;2.20;;;1.20;99.90;;;;;;4989217;28;20026;-52
2022/04/10 04:19:46;;;;;;;4.70;2.42;;;1.20;99.90;;;;;;4989670;28;20030;-53
2022/04/10 04:22:11;;;;;;;4.35;2.42;;;1.30;99.90;;;;;;4989407;28;20385;-56
2022/04/10 04:24:37;;;;;;;11.15;2.83;;;1.20;99.90;;;;;;4989414;28;20117;-55
2022/04/10 04:27:03;;;;;;;5.10;1.88;;;1.20;99.90;;;;;;4989058;28;20041;-53
2022/04/10 04:29:28;;;;;;;3.20;1.95;;;1.20;99.90;;;;;;4989145;28;20654;-53
2022/04/10 04:31:54;;;;;;;6.90;2.22;;;1.20;99.90;;;;;;4989091;28;20035;-55
2022/04/10 04:34:21;;;;;;;5.10;2.15;;;1.20;99.90;;;;;;4989224;28;20532;-52
2022/04/10 04:36:46;;;;;;;8.70;2.30;;;1.10;99.90;;;;;;4988085;28;20110;-55
2022/04/10 04:39:12;;;;;;;6.07;2.40;;;1.10;99.90;;;;;;4989765;28;20113;-55
2022/04/10 04:41:37;;;;;;;8.05;2.58;;;1.10;99.90;;;;;;4988475;28;20038;-53
2022/04/10 04:44:03;;;;;;;5.97;2.97;;;1.10;99.90;;;;;;4988563;28;20027;-50
2022/04/10 04:46:29;;;;;;;6.85;2.38;;;1.20;99.90;;;;;;4989068;28;20043;-52
2022/04/10 04:48:55;;;;;;;7.18;2.72;;;1.10;99.90;;;;;;4989593;28;20026;-53
2022/04/10 04:51:20;;;;;;;7.05;3.40;;;1.10;99.90;;;;;;4989184;28;20069;-54
2022/04/10 04:53:46;;;;;;;5.55;2.65;;;1.10;99.90;;;;;;4991102;28;20105;-56
2022/04/10 04:56:11;;;;;;;7.63;3.17;;;1.10;99.90;;;;;;4992342;28;20564;-55
2022/04/10 04:58:37;;;;;;;7.32;3.33;;;1.10;99.90;;;;;;4992482;28;20065;-51
2022/04/10 05:01:02;;;;;;;5.38;2.75;;;1.10;99.90;;;;;;4992657;28;20026;-56
2022/04/10 05:03:28;;;;;;;6.13;2.95;;;1.10;99.90;;;;;;4992434;28;20019;-55
2022/04/10 05:05:53;;;;;;;6.95;3.13;;;1.20;99.90;;;;;;4992698;28;20401;-55
2022/04/10 05:08:22;;;;;;;6.38;2.97;;;1.20;99.90;;;;;;4992240;28;20030;-51
2022/04/10 05:10:48;;;;;;;11.30;3.47;;;1.20;99.90;;;;;;4992183;28;20036;-55
2022/04/10 05:13:13;;;;;;;10.63;4.15;;;1.30;99.90;;;;;;4992050;28;20493;-53
2022/04/10 05:15:39;;;;;;;7.35;2.90;;;1.30;99.90;;;;;;4992527;28;20026;-53
2022/04/10 05:18:04;;;;;;;7.18;3.15;;;1.30;99.90;;;;;;4992734;28;20064;-55
2022/04/10 05:20:30;;;;;;;7.57;3.42;;;1.40;99.90;;;;;;4992271;28;20026;-54
2022/04/10 05:22:56;;;;;;;8.13;3.60;;;1.40;99.90;;;;;;4992215;28;20097;-54
2022/04/10 05:25:22;;;;;;;9.35;3.40;;;1.40;99.90;;;;;;4991666;28;20034;-56
2022/04/10 05:27:48;;;;;;;11.18;3.83;;;1.50;99.90;;;;;;4986851;28;20539;-52
2022/04/10 05:30:13;;;;;;;11.32;4.03;;;1.40;99.90;;;;;;4992198;28;20033;-55
2022/04/10 05:32:42;;;;;;;11.80;4.22;;;1.50;99.90;;;;;;4991657;28;20037;-52
2022/04/10 05:35:09;;;;;;;11.02;3.58;;;1.50;99.90;;;;;;4991912;28;20046;-54
2022/04/10 05:37:35;;;;;;;7.68;3.28;;;1.60;99.90;;;;;;4992046;28;20031;-55
2022/04/10 05:40:01;;;;;;;9.90;3.92;;;1.60;99.90;;;;;;4992004;28;20050;-52
2022/04/10 05:42:26;;;;;;;14.38;3.15;;;1.70;99.90;;;;;;4991354;28;20113;-55
2022/04/10 05:44:52;;;;;;;10.20;3.65;;;1.70;99.90;;;;;;4991917;28;20045;-54
2022/04/10 05:47:19;;;;;;;7.80;3.25;;;1.60;99.90;;;;;;4991799;28;20050;-56
2022/04/10 05:49:44;;;;;;;7.55;2.60;;;1.60;99.90;;;;;;4991965;28;20077;-54
2022/04/10 05:52:10;;;;;;;7.10;3.00;;;1.60;99.90;;;;;;4991705;28;20034;-54
2022/04/10 05:54:35;;;;;;;11.65;3.17;;;1.70;99.90;;;;;;4992146;28;20026;-53
2022/04/10 05:57:01;;;;;;;7.32;3.40;;;1.70;99.90;;;;;;4991464;28;20030;-55
2022/04/10 05:59:26;;;;;;;12.73;3.92;;;1.70;99.90;;;;;;4991142;28;20035;-56
2022/04/10 06:01:54;;;;;;;9.98;3.25;;;1.70;99.90;;;;;;4991402;28;20058;-54
2022/04/10 06:04:20;;;;;;;8.82;2.95;;;1.80;99.90;;;;;;4991069;28;20438;-55
2022/04/10 06:06:45;;;;;;;10.60;3.67;;;1.80;99.90;;;;;;4991434;28;20068;-53
2022/04/10 06:09:11;;;;;;;6.07;2.75;;;1.80;99.90;;;;;;4991630;28;20058;-55
2022/04/10 06:11:36;;;;;;;7.90;3.25;;;1.90;99.90;;;;;;4991887;28;20378;-56
2022/04/10 06:14:02;;;;;;;10.20;3.30;;;2.00;99.90;;;;;;4990920;28;20061;-53
2022/04/10 06:16:28;;;;;;;10.32;2.72;;;2.00;99.90;;;;;;4991347;28;20611;-56
2022/04/10 06:18:54;;;;;;;6.63;3.10;;;2.00;99.90;;;;;;4991349;28;20089;-53
2022/04/10 06:21:19;;;;;;;10.85;3.67;;;2.20;99.90;;;;;;4991110;28;20390;-52
2022/04/10 06:23:45;;;;;;;14.27;3.38;;;2.40;99.90;;;;;;4990656;28;20030;-56
2022/04/10 06:26:10;;;;;;;10.65;3.00;;;2.50;99.90;;;;;;4991315;28;20026;-56
2022/04/10 06:28:36;;;;;;;12.48;3.00;;;2.50;99.90;;;;;;4991020;28;20026;-55
2022/04/10 06:31:02;;;;;;;6.43;2.97;;;2.60;99.90;;;;;;4991323;28;20030;-54
2022/04/10 06:33:27;;;;;;;7.95;3.28;;;2.60;99.90;;;;;;4990944;28;20030;-53
2022/04/10 06:35:54;;;;;;;10.05;3.38;;;2.50;99.90;;;;;;4991160;28;20034;-55
2022/04/10 06:38:20;;;;;;;13.93;3.42;;;2.60;99.90;;;;;;4991031;28;20028;-54
2022/04/10 06:40:47;;;;;;;12.27;3.08;;;2.70;99.90;;;;;;4991264;28;20030;-53
2022/04/10 06:43:13;;;;;;;13.50;3.65;;;2.80;99.90;;;;;;4990587;28;20389;-53
2022/04/10 06:45:38;;;;;;;16.00;3.78;;;2.90;99.90;;;;;;4990925;28;20084;-56
2022/04/10 06:48:06;;;;;;;11.25;3.17;;;3.00;99.90;;;;;;4991201;28;20661;-55
2022/04/10 06:50:31;;;;;;;8.55;3.40;;;3.10;99.90;;;;;;4990891;28;20026;-56
2022/04/10 06:52:57;;;;;;;11.57;3.03;;;3.10;99.90;;;;;;4990202;28;20077;-53
2022/04/10 06:55:23;;;;;;;10.02;3.17;;;3.20;99.90;;;;;;4991081;28;20109;-54
2022/04/10 06:57:48;;;;;;;9.32;2.67;;;3.20;99.90;;;;;;4989292;28;20038;-53
2022/04/10 07:00:15;;;;;;;14.95;3.45;;;3.20;99.90;;;;;;4989706;28;20058;-53
2022/04/10 07:02:40;;;;;;;12.25;2.85;;;3.20;99.90;;;;;;4980979;28;20057;-52
2022/04/10 07:05:06;;;;;;;7.05;2.58;;;3.30;99.90;;;;;;4990728;28;20066;-55
2022/04/10 07:07:32;;;;;;;7.30;2.35;;;3.40;99.90;;;;;;4990369;28;20121;-53
2022/04/10 07:09:59;;;;;;;14.48;2.90;;;3.50;99.90;;;;;;4990587;28;20036;-54
2022/04/10 07:12:25;;;;;;;8.52;2.25;;;3.50;99.90;;;;;;4990091;28;20522;-54
2022/04/10 07:14:51;;;;;;;9.35;2.60;;;3.60;99.90;;;;;;4990552;28;20026;-53
2022/04/10 07:17:16;;;;;;;7.25;2.35;;;3.80;99.90;;;;;;4990012;28;20086;-56
2022/04/10 07:19:42;;;;;;;6.25;2.45;;;3.90;99.90;;;;;;4990249;28;20022;-53
2022/04/10 07:24:52;;;;;;;9.52;1.95;;;4.30;99.90;;;;;;4989551;28;20669;-54
2022/04/10 07:27:17;;;;;;;6.07;2.17;;;4.40;99.90;;;;;;4989182;28;20026;-55
2022/04/10 07:29:43;;;;;;;8.00;2.22;;;4.50;99.90;;;;;;4990478;28;20643;-54
2022/04/10 07:32:09;;;;;;;3.97;2.03;;;4.70;99.90;;;;;;4989883;28;20030;-55
2022/04/10 07:34:34;;;;;;;8.05;2.85;;;4.80;99.90;;;;;;4989702;28;20030;-53
2022/04/10 07:37:00;;;;;;;5.82;2.10;;;5.00;99.90;;;;;;4989903;28;20045;-51
2022/04/10 07:39:26;;;;;;;9.68;2.30;;;5.20;99.90;;;;;;4989085;28;20505;-53
2022/04/10 07:41:51;;;;;;;8.20;2.10;;;5.40;99.90;;;;;;4990124;28;20034;-54
2022/04/10 07:44:17;;;;;;;9.02;2.72;;;5.50;99.90;;;;;;4989858;28;20096;-54
2022/04/10 07:49:26;;;;;;;8.68;2.15;;;5.80;99.90;;;;;;4989607;28;20452;-51
2022/04/10 07:51:52;;;;;;;4.10;1.40;;;5.90;99.90;;;;;;4990273;28;20031;-55
2022/04/10 07:54:18;;;;;;;9.40;2.47;;;6.10;99.90;;;;;;4990334;28;20038;-56
2022/04/10 07:56:44;;;;;;;9.65;2.60;;;6.20;99.90;;;;;;4989863;28;20040;-56
2022/04/10 07:59:10;;;;;;;5.72;2.45;;;6.50;99.90;;;;;;4990137;28;20572;-54
2022/04/10 08:01:36;;;;;;;7.82;2.55;;;6.70;99.90;;;;;;4989502;28;20049;-56
2022/04/10 08:04:02;;;;;;;8.80;2.22;;;6.60;99.90;;;;;;4990074;28;20102;-55
2022/04/10 08:06:28;;;;;;;9.05;2.80;;;6.40;99.90;;;;;;4990329;28;20034;-56
2022/04/10 08:08:53;;;;;;;8.27;2.38;;;6.30;99.90;;;;;;4990177;28;20038;-55
2022/04/10 08:11:19;;;;;;;6.75;1.92;;;6.10;99.90;;;;;;4989933;28;20035;-55
2022/04/10 08:13:44;;;;;;;4.65;1.92;;;5.70;99.90;;;;;;4989163;28;20105;-56
2022/04/10 08:16:10;;;;;;;6.25;1.75;;;5.40;99.90;;;;;;4988971;28;20045;-52
2022/04/10 08:18:35;;;;;;;8.20;1.98;;;5.10;99.90;;;;;;4989796;28;20073;-54
2022/04/10 08:21:01;;;;;;;9.90;2.13;;;4.90;99.90;;;;;;4988439;28;20386;-55
2022/04/10 08:23:26;;;;;;;7.32;2.05;;;5.00;99.90;;;;;;4987911;28;20072;-55
2022/04/10 08:25:52;;;;;;;12.82;2.17;;;5.30;99.90;;;;;;4988939;28;20062;-56
2022/04/10 08:28:18;;;;;;;7.68;2.53;;;5.50;99.90;;;;;;4988856;28;20559;-56
2022/04/10 08:30:44;;;;;;;6.97;2.33;;;5.90;99.90;;;;;;4993721;28;20026;-53
2022/04/10 08:33:09;;;;;;;10.00;2.42;;;6.10;99.90;;;;;;4993349;28;20121;-54
2022/04/10 08:35:35;;;;;;;7.07;1.92;;;6.40;99.90;;;;;;4992896;28;20076;-55
2022/04/10 08:38:01;;;;;;;5.70;1.55;;;6.70;99.90;;;;;;4993303;28;20503;-52
2022/04/10 08:40:28;;;;;;;10.55;1.88;;;6.90;99.90;;;;;;4993736;28;20069;-55
2022/04/10 08:42:54;;;;;;;6.45;2.30;;;6.90;99.90;;;;;;4994170;28;20031;-54
2022/04/10 08:45:25;;;;;;;6.45;2.08;;;6.80;99.90;;;;;;4993540;28;20081;-53
2022/04/10 08:47:52;;;;;;;4.93;1.58;;;6.80;99.90;;;;;;4992107;28;20085;-50
2022/04/10 08:50:18;;;;;;;9.52;1.77;;;6.70;99.90;;;;;;4992031;28;20484;-53
2022/04/10 08:52:45;;;;;;;4.05;1.52;;;6.60;99.90;;;;;;4992992;28;20053;-52
2022/04/10 08:55:10;;;;;;;7.03;1.50;;;6.70;99.90;;;;;;4993258;28;20120;-55
2022/04/10 08:57:36;;;;;;;6.53;2.25;;;6.70;99.90;;;;;;4992630;28;20081;-53
2022/04/10 09:00:03;;;;;;;11.93;2.00;;;7.00;99.90;;;;;;4992807;28;20042;-50
2022/04/10 09:02:29;;;;;;;12.10;2.65;;;7.20;99.90;;;;;;4992556;28;20623;-53
2022/04/10 09:04:55;;;;;;;4.80;1.63;;;7.20;99.90;;;;;;4992490;28;20030;-55
2022/04/10 09:07:21;;;;;;;5.60;1.60;;;7.10;99.90;;;;;;4991587;28;20033;-55
2022/04/10 09:09:56;;;;;;;7.97;1.73;;;6.90;99.90;;;;;;4992351;28;20030;-51
2022/04/10 09:12:23;;;;;;;11.13;2.65;;;6.80;99.90;;;;;;4991637;28;20081;-53
2022/04/10 09:14:50;;;;;;;8.20;2.03;;;6.70;99.90;;;;;;4992610;28;20030;-55
2022/04/10 09:17:22;;;;;;;3.70;1.63;;;6.80;99.90;;;;;;4992034;28;20038;-52
2022/04/10 09:19:50;;;;;;;6.45;2.13;;;6.90;99.90;;;;;;4992511;28;20019;-53
2022/04/10 09:22:35;;;;;;;5.45;1.80;;;7.20;99.90;;;;;;4992569;28;20413;-51
2022/04/10 09:25:16;;;;;;;10.85;2.10;;;7.30;99.90;;;;;;4992489;28;20029;-52
2022/04/10 09:27:46;;;;;;;4.80;2.13;;;7.40;99.90;;;;;;4992145;28;20039;-54
2022/04/10 09:30:14;;;;;;;6.47;1.33;;;7.60;99.90;;;;;;4992423;28;20062;-54
2022/04/10 09:32:53;;;;;;;12.85;2.60;;;7.90;99.90;;;;;;4991456;28;20026;-55
2022/04/10 09:35:21;;;;;;;5.90;1.92;;;8.00;99.90;;;;;;4992216;28;20497;-53
2022/04/10 09:37:57;;;;;;;6.40;1.75;;;7.90;99.90;;;;;;4991923;28;20610;-54
2022/04/10 09:40:33;;;;;;;4.80;1.73;;;7.70;99.90;;;;;;4990826;28;20038;-56
2022/04/10 09:43:00;;;;;;;10.02;2.38;;;7.30;99.90;;;;;;4990832;28;20023;-52
2022/04/10 09:45:30;;;;;;;3.70;1.58;;;7.30;99.90;;;;;;4992167;28;20434;-51
2022/04/10 09:47:56;;;;;;;6.55;2.20;;;7.20;99.90;;;;;;4992342;28;20105;-54
2022/04/10 09:50:32;;;;;;;8.95;1.92;;;7.20;99.90;;;;;;4991946;28;20026;-57
2022/04/10 09:53:05;;;;;;;12.50;2.00;;;7.30;99.90;;;;;;4991709;28;20437;-54
2022/04/10 09:55:41;;;;;;;4.95;1.73;;;7.30;99.90;;;;;;4991820;28;20045;-53
2022/04/10 09:58:10;;;;;;;7.32;2.25;;;7.20;99.90;;;;;;4990492;28;20037;-54
2022/04/10 10:00:46;;;;;;;6.20;2.65;;;7.30;99.90;;;;;;4991970;28;20827;-53
2022/04/10 10:03:14;;;;;;;4.90;2.20;;;7.60;99.90;;;;;;4991658;28;20488;-55
2022/04/10 10:05:40;;;;;;;8.73;2.20;;;7.60;99.90;;;;;;4992075;28;20053;-56
2022/04/10 10:08:07;;;;;;;7.70;2.17;;;7.60;99.90;;;;;;4991643;28;20030;-53
2022/04/10 10:10:37;;;;;;;5.32;1.70;;;7.80;99.90;;;;;;4991709;28;20540;-57
2022/04/10 10:13:08;;;;;;;5.60;1.95;;;8.20;99.90;;;;;;4991157;28;20034;-53
2022/04/10 10:15:37;;;;;;;6.80;2.03;;;8.60;99.90;;;;;;4991496;28;20029;-57
2022/04/10 10:18:06;;;;;;;8.00;1.67;;;8.60;99.90;;;;;;4991422;28;20034;-55
2022/04/10 10:20:33;;;;;;;4.93;1.65;;;8.70;99.90;;;;;;4991550;28;20540;-55
2022/04/10 10:23:04;;;;;;;6.55;1.50;;;8.90;99.90;;;;;;4991025;28;20022;-55
2022/04/10 10:25:36;;;;;;;2.97;1.17;;;8.90;99.90;;;;;;4990121;28;20104;-55
2022/04/10 10:28:39;;;;;;;5.57;1.90;;;9.00;99.90;;;;;;4991315;28;20488;-55
2022/04/10 10:31:23;;;;;;;2.42;1.00;;;9.20;99.90;;;;;;4991028;28;20058;-55
2022/04/10 10:33:57;;;;;;;8.15;2.10;;;9.00;99.90;;;;;;4989848;28;20034;-56
2022/04/10 10:36:26;;;;;;;6.07;0.93;;;9.00;99.90;;;;;;4991141;28;20048;-57
2022/04/10 10:38:54;;;;;;;4.70;1.33;;;9.10;99.90;;;;;;4989954;28;20030;-59
2022/04/10 10:41:19;;;;;;;4.55;1.40;;;9.20;99.90;;;;;;4990059;28;20030;-56
2022/04/10 10:43:47;;;;;;;4.20;1.27;;;9.30;99.50;;;;;;4992137;28;20018;-53
2022/04/10 10:46:22;;;;;;;12.02;1.73;;;9.30;99.90;;;;;;4990250;28;20045;-54
2022/04/10 10:48:50;;;;;;;5.57;1.67;;;9.30;99.90;;;;;;4989557;28;20061;-51
2022/04/10 10:51:15;;;;;;;3.75;1.38;;;9.20;99.90;;;;;;4990197;28;20030;-53
2022/04/10 10:53:45;;;;;;;6.07;1.25;;;9.40;99.90;;;;;;4990247;28;20030;-54
2022/04/10 10:56:14;;;;;;;5.32;1.20;;;9.20;99.90;;;;;;4990622;28;20030;-54
2022/04/10 10:58:40;;;;;;;6.45;1.70;;;9.10;99.90;;;;;;4990674;28;20116;-52
2022/04/10 11:01:08;;;;;;;6.47;1.90;;;8.70;99.90;;;;;;4990803;28;20670;-55
2022/04/10 11:04:08;;;;;;;3.42;1.00;;;8.20;99.90;;;;;;4990549;28;20096;-52
2022/04/10 11:06:44;;;;;;;2.90;0.60;;;7.70;99.90;;;;;;4990051;28;20023;-55
2022/04/10 11:09:23;;;;;;;4.38;1.10;;;6.90;99.90;;;;;;4990685;28;20157;-55
2022/04/10 11:11:49;;;;;;;2.50;1.25;;;6.50;99.90;;;;;;4988854;28;20034;-55
2022/04/10 11:14:34;;;;;;;1.52;0.80;;;6.10;99.90;;;;;;4990150;28;20033;-54
2022/04/10 11:17:30;;;;;;;5.88;1.35;;;5.90;99.90;;;;;;4990199;28;20497;-51
2022/04/10 11:19:59;;;;;;;6.10;1.40;;;6.10;99.90;;;;;;4988256;28;20046;-55
2022/04/10 11:22:36;;;;;;;4.63;1.38;;;6.30;99.90;;;;;;4989884;28;20033;-53
2022/04/10 11:25:09;;;;;;;5.10;1.60;;;6.40;99.90;;;;;;4988920;28;20157;-55
2022/04/10 11:27:44;;;;;;;2.85;1.10;;;6.30;99.90;;;;;;4990349;28;20026;-52
2022/04/10 11:30:12;;;;;;;4.03;1.15;;;6.30;99.90;;;;;;4989550;28;20026;-56
2022/04/10 11:32:49;;;;;;;3.97;1.08;;;6.50;99.90;;;;;;4989606;28;20030;-54
2022/04/10 11:35:17;;;;;;;4.95;2.08;;;6.70;99.90;;;;;;4989702;28;20034;-53
2022/04/10 11:37:46;;;;;;;3.50;1.17;;;6.80;99.90;;;;;;4989438;28;20041;-55
2022/04/10 11:40:13;;;;;;;5.05;2.00;;;7.10;99.90;;;;;;4988192;28;20034;-51
2022/04/10 11:42:38;;;;;;;4.75;1.27;;;7.30;99.90;;;;;;4987297;28;20572;-53
2022/04/10 11:45:04;;;;;;;4.15;1.35;;;7.60;99.90;;;;;;4988495;28;20101;-54
2022/04/10 11:47:31;;;;;;;5.07;0.95;;;7.80;99.90;;;;;;4975615;28;20092;-53
2022/04/10 11:49:58;;;;;;;4.78;1.73;;;7.90;99.90;;;;;;4983224;28;20026;-54
2022/04/10 11:52:23;;;;;;;4.32;1.23;;;8.00;99.90;;;;;;4983934;28;20030;-55
2022/04/10 11:54:52;;;;;;;5.97;1.65;;;8.00;99.90;;;;;;4989747;28;20164;-53
2022/04/10 11:57:19;;;;;;;5.72;1.58;;;8.10;99.90;;;;;;4989966;28;20077;-57
2022/04/10 11:59:44;;;;;;;5.05;1.50;;;8.20;99.90;;;;;;4989939;28;20116;-52
2022/04/10 12:02:14;;;;;;;6.18;1.42;;;8.20;99.90;;;;;;4989497;28;20496;-53
2022/04/10 12:04:41;;;;;;;5.90;1.23;;;8.40;99.90;;;;;;4994089;28;20011;-56
2022/04/10 12:07:15;;;;;;;5.50;1.52;;;8.60;99.90;;;;;;4994075;28;20038;-53
2022/04/10 12:09:41;;;;;;;6.15;1.20;;;8.70;99.90;;;;;;4994139;28;20045;-53
2022/04/10 12:12:08;;;;;;;2.45;0.70;;;8.50;99.90;;;;;;4993760;28;20659;-53
2022/04/10 12:14:33;;;;;;;6.18;0.80;;;8.10;99.90;;;;;;4993949;28;20022;-56
2022/04/10 12:16:59;;;;;;;4.18;0.80;;;7.90;99.90;;;;;;4993958;28;20515;-54
2022/04/10 12:19:35;;;;;;;2.15;0.82;;;7.80;99.90;;;;;;4994261;28;20034;-53
2022/04/10 12:22:06;;;;;;;2.28;0.70;;;7.70;99.90;;;;;;4993579;28;20092;-55
2022/04/10 12:24:32;;;;;;;3.65;0.93;;;7.80;99.90;;;;;;4992440;28;20023;-53
2022/04/10 12:26:58;;;;;;;6.30;1.17;;;7.90;99.90;;;;;;5008938;28;20480;-52
2022/04/10 12:29:27;;;;;;;3.90;0.90;;;7.90;99.90;;;;;;4993699;28;20019;-56
2022/04/10 12:31:54;;;;;;;4.93;1.38;;;8.10;99.90;;;;;;4993656;28;20030;-52
2022/04/10 12:34:23;;;;;;;2.28;1.20;;;8.20;99.90;;;;;;4993698;28;20058;-52
2022/04/10 12:36:52;;;;;;;3.47;0.90;;;8.30;99.90;;;;;;4993078;28;20030;-57
2022/04/10 12:39:28;;;;;;;3.65;0.90;;;8.20;99.90;;;;;;4993558;28;20197;-57
2022/04/10 12:42:01;;;;;;;;;;;8.10;99.90;;;;;;4993352;28;20030;-55
2022/04/10 12:44:27;;;;;;;4.15;1.70;;;8.00;99.90;;;;;;4989912;28;20372;-54
2022/04/10 12:46:53;;;;;;;4.60;1.55;;;7.90;99.90;;;;;;4993237;28;20030;-50
2022/04/10 12:49:18;;;;;;;8.57;1.48;;;7.70;99.90;;;;;;4993059;28;20471;-53
2022/04/10 12:51:48;;;;;;;6.40;1.70;;;7.60;99.90;;;;;;4991497;28;20080;-50
2022/04/10 12:54:14;;;;;;;4.68;1.00;;;7.70;99.90;;;;;;4991748;28;20393;-55
2022/04/10 12:56:39;;;;;;;9.88;1.27;;;7.70;99.90;;;;;;4992665;28;20037;-52
2022/04/10 12:59:05;;;;;;;6.60;1.58;;;7.80;99.90;;;;;;4992824;28;20030;-54
2022/04/10 13:01:32;;;;;;;10.00;1.80;;;7.80;99.90;;;;;;4991612;28;20033;-51